Time;durP1;ratioP1;P1;durP2;ratioP2;P2;SDS_P1;SDS_P2;PMS_P1;PMS_P2;Temp;Humidity;BMP_temperature;BMP_pressure;BME280_temperature;BME280_humidity;BME280_pressure;Samples;Min_cycle;Max_cycle;Signal;HPM_P1;HPM_P2
2021/07/22 00:02:11;;;;;;;13.48;10.88;;;19.90;99.10;;;;;;5011158;28;20048;-43
2021/07/22 00:04:36;;;;;;;14.23;10.95;;;19.80;99.10;;;;;;5017392;28;20118;-42
2021/07/22 00:07:04;;;;;;;13.75;10.25;;;19.80;99.30;;;;;;5010818;28;20132;-42
2021/07/22 00:09:29;;;;;;;13.73;11.07;;;19.70;99.40;;;;;;5019398;28;20386;-45
2021/07/22 00:11:55;;;;;;;13.88;11.20;;;19.60;99.50;;;;;;5009496;28;20025;-44
2021/07/22 00:14:21;;;;;;;16.58;12.35;;;19.60;99.60;;;;;;5019346;28;20393;-45
2021/07/22 00:16:46;;;;;;;15.43;12.10;;;19.50;99.80;;;;;;5009396;28;20358;-45
2021/07/22 00:19:12;;;;;;;13.82;10.80;;;19.50;99.90;;;;;;5020225;28;20469;-44
2021/07/22 00:21:38;;;;;;;14.82;11.32;;;19.40;99.90;;;;;;5008465;28;20038;-43
2021/07/22 00:24:04;;;;;;;14.98;11.13;;;19.40;99.90;;;;;;5020940;28;20029;-42
2021/07/22 00:26:30;;;;;;;12.95;10.65;;;19.40;99.90;;;;;;5008202;28;20042;-44
2021/07/22 00:28:57;;;;;;;13.35;11.25;;;19.30;99.90;;;;;;5017712;28;20022;-41
2021/07/22 00:31:23;;;;;;;14.80;10.43;;;19.40;99.90;;;;;;5010071;28;20018;-42
2021/07/22 00:33:49;;;;;;;13.75;10.15;;;19.40;99.90;;;;;;5016244;28;20020;-42
2021/07/22 00:36:15;;;;;;;14.13;10.30;;;19.40;99.90;;;;;;5013610;28;20029;-44
2021/07/22 00:38:40;;;;;;;13.65;10.40;;;19.40;99.90;;;;;;5012412;28;20025;-44
2021/07/22 00:41:10;;;;;;;16.02;10.48;;;19.40;99.90;;;;;;5016257;28;20034;-40
2021/07/22 00:43:37;;;;;;;12.40;9.80;;;19.40;99.90;;;;;;5010187;28;20022;-43
2021/07/22 00:46:02;;;;;;;12.38;9.90;;;19.50;99.90;;;;;;5017707;28;20053;-45
2021/07/22 00:48:28;;;;;;;12.57;10.07;;;19.50;99.90;;;;;;5009778;28;20017;-44
2021/07/22 00:50:53;;;;;;;12.52;9.48;;;19.50;99.90;;;;;;5020107;28;20105;-43
2021/07/22 00:53:19;;;;;;;12.48;9.43;;;19.50;99.90;;;;;;5009054;28;20113;-44
2021/07/22 00:55:44;;;;;;;12.32;9.40;;;19.50;99.90;;;;;;5019596;28;20034;-45
2021/07/22 00:58:10;;;;;;;10.95;8.57;;;19.40;99.90;;;;;;5008786;28;20059;-42
2021/07/22 01:00:36;;;;;;;9.98;8.45;;;19.40;99.90;;;;;;5020271;28;20492;-43
2021/07/22 01:03:04;;;;;;;11.80;9.30;;;19.40;99.90;;;;;;5008677;28;20042;-43
2021/07/22 01:05:30;;;;;;;12.52;9.73;;;19.40;99.90;;;;;;5019841;28;20037;-44
2021/07/22 01:07:55;;;;;;;12.82;9.18;;;19.40;99.90;;;;;;5008182;28;20034;-43
2021/07/22 01:10:21;;;;;;;12.30;9.48;;;19.40;99.90;;;;;;5017821;28;20134;-45
2021/07/22 01:12:47;;;;;;;11.70;9.10;;;19.40;99.90;;;;;;5015749;28;20355;-43
2021/07/22 01:15:12;;;;;;;12.60;9.98;;;19.40;99.90;;;;;;5020451;28;20139;-41
2021/07/22 01:17:42;;;;;;;13.25;9.48;;;19.40;99.90;;;;;;5026443;28;20103;-43
2021/07/22 01:20:13;;;;;;;11.65;9.30;;;19.40;99.90;;;;;;5026703;28;20025;-45
2021/07/22 01:22:39;;;;;;;12.18;9.13;;;19.50;99.90;;;;;;5025134;28;20508;-42
2021/07/22 01:25:05;;;;;;;11.90;9.48;;;19.40;99.90;;;;;;5028177;28;20053;-42
2021/07/22 01:27:31;;;;;;;12.30;9.57;;;19.40;99.90;;;;;;5021840;28;20033;-43
2021/07/22 01:29:56;;;;;;;13.00;10.10;;;19.40;99.90;;;;;;5030292;28;20017;-44
2021/07/22 01:32:22;;;;;;;12.98;10.40;;;19.50;99.90;;;;;;5020426;28;20017;-45
2021/07/22 01:34:47;;;;;;;14.65;10.30;;;19.40;99.90;;;;;;5030005;28;20029;-44
2021/07/22 01:37:14;;;;;;;11.85;10.02;;;19.40;99.90;;;;;;5020390;28;20389;-42
2021/07/22 01:39:40;;;;;;;14.32;10.32;;;19.40;99.90;;;;;;5030924;28;20021;-45
2021/07/22 01:42:06;;;;;;;12.48;10.65;;;19.30;99.90;;;;;;5018094;28;20025;-45
2021/07/22 01:44:31;;;;;;;12.52;10.32;;;19.30;99.90;;;;;;5030686;28;20029;-44
2021/07/22 01:46:57;;;;;;;13.15;10.73;;;19.20;99.90;;;;;;5018835;28;20045;-41
2021/07/22 01:49:22;;;;;;;12.23;10.50;;;19.10;99.90;;;;;;5030009;28;20033;-45
2021/07/22 01:51:48;;;;;;;13.20;11.20;;;19.10;99.90;;;;;;5020494;28;20036;-45
2021/07/22 01:54:13;;;;;;;14.35;11.77;;;19.00;99.90;;;;;;5029462;28;20469;-44
2021/07/22 01:56:39;;;;;;;15.10;11.25;;;19.00;99.90;;;;;;5022225;28;20481;-42
2021/07/22 01:59:04;;;;;;;12.90;10.27;;;18.90;99.90;;;;;;5027090;28;20029;-43
2021/07/22 02:01:30;;;;;;;14.05;11.32;;;18.90;99.90;;;;;;5025619;28;20018;-42
2021/07/22 02:03:56;;;;;;;15.07;11.52;;;18.80;99.90;;;;;;5023489;28;20038;-45
2021/07/22 02:06:21;;;;;;;13.75;11.60;;;18.70;99.90;;;;;;5027369;28;20038;-42
2021/07/22 02:08:47;;;;;;;15.10;11.23;;;18.70;99.90;;;;;;5021238;28;20032;-43
2021/07/22 02:11:12;;;;;;;14.32;11.68;;;18.60;99.90;;;;;;5029062;28;20055;-42
2021/07/22 02:13:38;;;;;;;12.38;10.88;;;18.60;99.90;;;;;;5023200;28;20051;-42
2021/07/22 02:16:07;;;;;;;15.98;11.40;;;18.60;99.90;;;;;;5030381;28;20051;-45
2021/07/22 02:18:33;;;;;;;13.18;10.63;;;18.70;99.90;;;;;;5017670;28;20032;-44
2021/07/22 02:21:06;;;;;;;15.40;12.73;;;18.70;99.90;;;;;;5012100;28;20100;-42
2021/07/22 02:23:36;;;;;;;16.13;12.55;;;18.70;99.90;;;;;;5017029;28;20044;-44
2021/07/22 02:26:05;;;;;;;14.85;11.30;;;18.60;99.90;;;;;;5030651;28;20029;-42
2021/07/22 02:28:31;;;;;;;16.50;11.63;;;18.60;99.90;;;;;;5018057;28;20119;-42
2021/07/22 02:30:57;;;;;;;16.15;12.27;;;18.50;99.90;;;;;;5030444;28;20477;-42
2021/07/22 02:33:23;;;;;;;18.15;13.25;;;18.50;99.90;;;;;;5017301;28;20073;-42
2021/07/22 02:35:49;;;;;;;16.10;12.85;;;18.40;99.90;;;;;;5030734;28;20388;-39
2021/07/22 02:38:14;;;;;;;17.77;13.80;;;18.20;99.90;;;;;;5020152;28;20025;-43
2021/07/22 02:40:40;;;;;;;17.70;13.35;;;18.10;99.90;;;;;;5026986;28;20113;-42
2021/07/22 02:43:06;;;;;;;20.52;14.38;;;18.00;99.90;;;;;;5023737;28;20017;-45
2021/07/22 02:45:32;;;;;;;18.85;13.63;;;17.90;99.90;;;;;;5023706;28;20025;-39
2021/07/22 02:47:57;;;;;;;18.30;14.32;;;17.80;99.90;;;;;;5026038;28;20053;-44
2021/07/22 02:50:23;;;;;;;19.75;13.65;;;17.80;99.90;;;;;;5021317;28;20029;-44
2021/07/22 02:52:49;;;;;;;16.77;13.43;;;17.70;99.90;;;;;;5027877;28;20018;-44
2021/07/22 02:55:14;;;;;;;18.38;14.05;;;17.70;99.90;;;;;;5019596;28;20028;-45
2021/07/22 02:57:40;;;;;;;18.80;13.80;;;17.60;99.90;;;;;;5028268;28;20026;-42
2021/07/22 03:00:07;;;;;;;17.00;13.10;;;17.60;99.90;;;;;;5018384;28;20453;-45
2021/07/22 03:02:33;;;;;;;18.90;14.15;;;17.60;99.90;;;;;;5028287;28;20029;-44
2021/07/22 03:04:58;;;;;;;15.00;12.10;;;17.60;99.90;;;;;;5018084;28;20183;-40
2021/07/22 03:07:24;;;;;;;16.67;13.50;;;17.50;99.90;;;;;;5028332;28;20065;-44
2021/07/22 03:09:50;;;;;;;17.08;13.23;;;17.50;99.90;;;;;;5017373;28;20569;-41
2021/07/22 03:12:16;;;;;;;17.83;12.77;;;17.50;99.90;;;;;;5030364;28;20025;-44
2021/07/22 03:14:42;;;;;;;19.75;13.65;;;17.50;99.90;;;;;;5021200;28;20155;-43
2021/07/22 03:17:07;;;;;;;19.25;13.48;;;17.50;99.90;;;;;;5011292;28;20193;-44
2021/07/22 03:19:34;;;;;;;19.05;13.60;;;17.50;99.90;;;;;;5017490;28;20381;-42
2021/07/22 03:22:00;;;;;;;17.92;13.50;;;17.50;99.90;;;;;;5013061;28;20113;-42
2021/07/22 03:24:25;;;;;;;17.60;13.05;;;17.50;99.90;;;;;;5015671;28;20121;-44
2021/07/22 03:26:51;;;;;;;17.00;13.15;;;17.50;99.90;;;;;;5015185;28;20038;-44
2021/07/22 03:29:17;;;;;;;17.83;13.05;;;17.50;99.90;;;;;;5012938;28;20030;-43
2021/07/22 03:31:43;;;;;;;17.38;13.18;;;17.50;99.90;;;;;;5017497;28;20084;-44
2021/07/22 03:34:09;;;;;;;18.58;13.15;;;17.50;99.90;;;;;;5010804;28;20407;-45
2021/07/22 03:36:35;;;;;;;18.90;13.13;;;17.60;99.90;;;;;;5020339;28;20433;-45
2021/07/22 03:39:00;;;;;;;17.15;12.80;;;17.60;99.90;;;;;;5010353;28;20474;-44
2021/07/22 03:41:26;;;;;;;15.15;12.32;;;17.60;99.90;;;;;;5018811;28;20149;-43
2021/07/22 03:43:52;;;;;;;14.23;11.77;;;17.60;99.90;;;;;;5009897;28;20044;-44
2021/07/22 03:46:18;;;;;;;15.52;11.05;;;17.70;99.90;;;;;;5015754;28;20083;-44
2021/07/22 03:48:44;;;;;;;18.45;12.32;;;17.70;99.90;;;;;;5028107;28;20105;-44
2021/07/22 03:51:10;;;;;;;15.25;11.80;;;17.60;99.90;;;;;;5017044;28;20025;-44
2021/07/22 03:53:39;;;;;;;14.70;11.75;;;17.60;99.90;;;;;;5028536;28;20120;-42
2021/07/22 03:56:04;;;;;;;14.85;12.40;;;17.60;99.90;;;;;;5016974;28;20057;-43
2021/07/22 03:58:30;;;;;;;16.70;12.30;;;17.60;99.90;;;;;;5027628;28;20057;-44
2021/07/22 04:00:57;;;;;;;14.93;11.77;;;17.60;99.90;;;;;;5019689;28;20100;-43
2021/07/22 04:03:25;;;;;;;15.98;11.80;;;17.70;99.90;;;;;;5024816;28;20549;-43
2021/07/22 04:05:52;;;;;;;14.75;11.75;;;17.70;99.90;;;;;;5022292;28;20018;-44
2021/07/22 04:08:18;;;;;;;15.63;11.40;;;17.80;99.90;;;;;;5023364;28;20033;-41
2021/07/22 04:10:43;;;;;;;16.48;12.57;;;17.90;99.90;;;;;;5023976;28;20378;-42
2021/07/22 04:13:09;;;;;;;16.08;12.38;;;17.90;99.90;;;;;;5015491;28;20025;-41
2021/07/22 04:15:35;;;;;;;15.23;12.32;;;17.90;99.90;;;;;;5010454;28;20029;-41
2021/07/22 04:18:00;;;;;;;16.55;12.35;;;17.90;99.90;;;;;;5019115;28;20030;-42
2021/07/22 04:20:27;;;;;;;16.10;12.32;;;17.90;99.90;;;;;;5009653;28;20021;-44
2021/07/22 04:22:57;;;;;;;13.95;11.38;;;17.80;99.90;;;;;;5020812;28;20374;-44
2021/07/22 04:25:23;;;;;;;15.50;11.38;;;17.80;99.90;;;;;;5009538;28;20126;-44
2021/07/22 04:27:48;;;;;;;15.90;11.82;;;17.80;99.90;;;;;;5020037;28;20061;-44
2021/07/22 04:30:14;;;;;;;13.18;10.65;;;17.80;99.90;;;;;;5009763;28;20401;-45
2021/07/22 04:32:40;;;;;;;15.38;11.50;;;17.80;99.90;;;;;;5020086;28;20475;-44
2021/07/22 04:35:08;;;;;;;13.55;11.55;;;17.80;99.90;;;;;;5009635;28;20014;-42
2021/07/22 04:37:37;;;;;;;14.45;11.05;;;17.70;99.90;;;;;;5019863;28;20850;-41
2021/07/22 04:40:06;;;;;;;15.48;11.32;;;17.70;99.90;;;;;;5009433;28;20144;-44
2021/07/22 04:42:32;;;;;;;16.38;12.10;;;17.70;99.90;;;;;;5018606;28;20029;-43
2021/07/22 04:44:57;;;;;;;16.45;12.35;;;17.70;99.90;;;;;;5010008;28;20487;-43
2021/07/22 04:47:23;;;;;;;13.23;10.90;;;17.80;99.90;;;;;;5016599;28;20612;-42
2021/07/22 04:49:48;;;;;;;12.57;10.48;;;17.80;99.90;;;;;;5013497;28;20018;-41
2021/07/22 04:52:14;;;;;;;16.75;11.18;;;17.80;99.90;;;;;;5017174;28;20044;-42
2021/07/22 04:54:39;;;;;;;14.43;10.85;;;17.90;99.90;;;;;;5019103;28;20030;-43
2021/07/22 04:57:05;;;;;;;14.60;10.52;;;17.90;99.90;;;;;;5014343;28;20029;-43
2021/07/22 04:59:30;;;;;;;13.63;10.65;;;17.90;99.90;;;;;;5021454;28;20045;-44
2021/07/22 05:01:56;;;;;;;17.20;11.52;;;17.90;99.90;;;;;;5014370;28;20036;-42
2021/07/22 05:04:21;;;;;;;11.77;9.27;;;17.80;99.90;;;;;;5023102;28;20042;-43
2021/07/22 05:06:47;;;;;;;15.90;11.55;;;17.90;99.90;;;;;;5013850;28;20037;-41
2021/07/22 05:09:12;;;;;;;14.02;11.13;;;17.90;99.90;;;;;;5019696;28;20022;-41
2021/07/22 05:11:38;;;;;;;17.70;11.43;;;17.90;99.90;;;;;;5011894;28;20050;-42
2021/07/22 05:14:04;;;;;;;15.95;11.20;;;18.00;99.90;;;;;;5014190;28;20481;-41
2021/07/22 05:16:29;;;;;;;15.98;11.13;;;18.00;99.90;;;;;;5011764;28;20034;-45
2021/07/22 05:18:55;;;;;;;14.23;11.48;;;18.00;99.90;;;;;;5019376;28;20022;-44
2021/07/22 05:21:20;;;;;;;15.88;12.15;;;18.10;99.90;;;;;;5030850;28;20040;-44
2021/07/22 05:23:46;;;;;;;16.88;13.55;;;18.10;99.90;;;;;;5021884;28;20033;-41
2021/07/22 05:26:12;;;;;;;16.13;13.48;;;18.10;99.90;;;;;;5029158;28;20040;-40
2021/07/22 05:28:40;;;;;;;21.30;13.73;;;18.00;99.90;;;;;;5024144;28;20488;-45
2021/07/22 05:31:10;;;;;;;18.02;13.88;;;18.00;99.90;;;;;;5027134;28;20078;-42
2021/07/22 05:33:40;;;;;;;18.15;13.35;;;17.90;99.90;;;;;;5025543;28;20014;-41
2021/07/22 05:36:08;;;;;;;15.85;12.65;;;17.90;99.90;;;;;;5025095;28;20018;-43
2021/07/22 05:38:37;;;;;;;14.45;11.88;;;17.90;99.90;;;;;;5027617;28;20033;-43
2021/07/22 05:41:04;;;;;;;16.77;12.63;;;17.90;99.90;;;;;;5023192;28;20021;-45
2021/07/22 05:43:31;;;;;;;17.90;13.68;;;17.90;99.90;;;;;;5029007;28;20468;-44
2021/07/22 05:45:57;;;;;;;16.73;12.95;;;17.90;99.90;;;;;;5020633;28;20071;-39
2021/07/22 05:48:23;;;;;;;17.38;12.85;;;17.90;99.90;;;;;;5028742;28;20030;-46
2021/07/22 05:50:49;;;;;;;17.65;13.90;;;17.90;99.90;;;;;;5012204;28;20028;-45
2021/07/22 05:53:16;;;;;;;15.77;12.07;;;17.90;99.90;;;;;;5011790;28;20477;-46
2021/07/22 05:55:42;;;;;;;13.88;11.43;;;17.90;99.90;;;;;;5019834;28;20021;-45
2021/07/22 05:58:07;;;;;;;14.82;11.63;;;17.90;99.90;;;;;;5027588;28;20021;-44
2021/07/22 06:00:33;;;;;;;14.93;11.90;;;17.90;99.90;;;;;;5016204;28;20026;-46
2021/07/22 06:02:58;;;;;;;17.75;12.73;;;18.00;99.90;;;;;;5028943;28;20029;-47
2021/07/22 06:05:24;;;;;;;15.77;12.40;;;18.00;99.90;;;;;;5017962;28;20117;-46
2021/07/22 06:07:50;;;;;;;16.73;12.23;;;18.00;99.90;;;;;;5029012;28;20034;-45
2021/07/22 06:10:15;;;;;;;15.10;11.98;;;18.10;99.90;;;;;;5019735;28;20021;-44
2021/07/22 06:12:42;;;;;;;15.07;12.07;;;18.10;99.90;;;;;;5025311;28;20776;-41
2021/07/22 06:15:09;;;;;;;15.52;11.93;;;18.10;99.90;;;;;;5016332;28;20044;-43
2021/07/22 06:17:36;;;;;;;13.48;11.25;;;18.20;99.90;;;;;;5014170;28;20030;-46
2021/07/22 06:20:06;;;;;;;14.80;11.32;;;18.30;99.90;;;;;;5011150;28;20037;-43
2021/07/22 06:22:32;;;;;;;14.80;10.93;;;18.30;99.90;;;;;;5015705;28;20025;-46
2021/07/22 06:24:57;;;;;;;12.02;10.63;;;18.30;99.90;;;;;;5013535;28;20014;-43
2021/07/22 06:27:23;;;;;;;14.18;11.23;;;18.40;99.90;;;;;;5019537;28;20034;-40
2021/07/22 06:29:49;;;;;;;17.75;11.95;;;18.50;99.90;;;;;;5028493;28;20069;-45
2021/07/22 06:32:15;;;;;;;17.13;11.82;;;18.50;99.90;;;;;;5018716;28;20028;-44
2021/07/22 06:34:40;;;;;;;16.63;12.30;;;18.50;99.90;;;;;;5027995;28;20025;-47
2021/07/22 06:37:06;;;;;;;14.88;11.57;;;18.60;99.90;;;;;;5017424;28;20040;-46
2021/07/22 06:39:35;;;;;;;15.52;10.77;;;18.60;99.90;;;;;;5029375;28;20025;-45
2021/07/22 06:42:04;;;;;;;15.40;11.15;;;18.70;99.90;;;;;;5017688;28;20125;-44
2021/07/22 06:44:30;;;;;;;13.27;11.23;;;18.70;99.90;;;;;;5028346;28;20468;-44
2021/07/22 06:46:55;;;;;;;16.98;12.73;;;18.80;99.90;;;;;;5016979;28;20120;-46
2021/07/22 06:52:16;;;;;;;12.90;11.50;;;18.90;99.90;;;;;;5008417;28;20033;-44
2021/07/22 06:54:44;;;;;;;12.93;10.70;;;18.90;99.90;;;;;;5009368;28;20029;-45
2021/07/22 06:57:10;;;;;;;15.60;12.15;;;19.00;99.90;;;;;;5021847;28;20109;-45
2021/07/22 06:59:35;;;;;;;15.68;11.48;;;19.10;99.90;;;;;;5008212;28;20117;-44
2021/07/22 07:02:01;;;;;;;13.57;11.25;;;19.10;99.90;;;;;;5018692;28;20484;-45
2021/07/22 07:04:26;;;;;;;15.20;11.52;;;19.10;99.90;;;;;;5012298;28;20056;-45
2021/07/22 07:06:52;;;;;;;15.23;12.00;;;19.20;99.90;;;;;;5014904;28;20052;-46
2021/07/22 07:09:21;;;;;;;15.23;12.10;;;19.30;99.90;;;;;;5015160;28;20056;-40
2021/07/22 07:11:49;;;;;;;15.63;11.50;;;19.40;99.90;;;;;;5013967;28;20078;-46
2021/07/22 07:14:15;;;;;;;16.85;11.80;;;19.40;99.90;;;;;;5015902;28;20048;-42
2021/07/22 07:16:40;;;;;;;14.75;11.63;;;19.50;99.90;;;;;;5010643;28;20065;-45
2021/07/22 07:19:09;;;;;;;15.27;11.18;;;19.60;99.90;;;;;;5020225;28;20018;-45
2021/07/22 07:21:38;;;;;;;13.00;10.57;;;19.80;99.90;;;;;;5009674;28;20018;-45
2021/07/22 07:24:07;;;;;;;11.85;9.70;;;20.00;99.90;;;;;;5019726;28;20044;-45
2021/07/22 07:26:32;;;;;;;12.13;9.57;;;20.10;99.90;;;;;;5009248;28;20575;-45
2021/07/22 07:28:58;;;;;;;11.77;9.55;;;20.30;99.90;;;;;;5020346;28;20053;-47
2021/07/22 07:31:24;;;;;;;12.20;10.25;;;20.40;99.90;;;;;;5003450;28;20028;-46
2021/07/22 07:33:50;;;;;;;12.63;10.65;;;20.50;99.90;;;;;;5005631;28;20064;-46
2021/07/22 07:36:16;;;;;;;17.52;10.93;;;20.60;99.90;;;;;;5029660;28;20020;-46
2021/07/22 07:38:42;;;;;;;12.02;9.75;;;20.60;99.90;;;;;;5015844;28;20034;-45
2021/07/22 07:41:07;;;;;;;13.88;10.75;;;20.60;99.90;;;;;;5029212;28;20017;-46
2021/07/22 07:43:33;;;;;;;12.35;9.68;;;20.60;99.90;;;;;;5017969;28;20532;-46
2021/07/22 07:45:58;;;;;;;13.38;9.68;;;20.70;99.90;;;;;;5009383;28;20121;-44
2021/07/22 07:48:24;;;;;;;12.73;9.65;;;20.70;99.90;;;;;;5011960;28;20068;-44
2021/07/22 07:50:49;;;;;;;12.27;9.25;;;20.80;99.90;;;;;;5005676;28;20022;-45
2021/07/22 07:53:18;;;;;;;12.52;9.00;;;20.80;99.90;;;;;;5008026;28;20053;-45
2021/07/22 07:55:44;;;;;;;13.82;9.13;;;20.80;99.90;;;;;;5016827;28;20638;-43
2021/07/22 07:58:10;;;;;;;12.60;9.98;;;20.80;99.90;;;;;;5025194;28;20022;-45
2021/07/22 08:00:37;;;;;;;14.52;10.45;;;20.70;99.90;;;;;;5018468;28;20068;-46
2021/07/22 08:03:04;;;;;;;12.88;10.50;;;20.60;99.90;;;;;;5026261;28;20021;-46
2021/07/22 08:05:29;;;;;;;14.82;10.98;;;20.70;99.90;;;;;;5016930;28;20420;-45
2021/07/22 08:07:55;;;;;;;12.40;9.75;;;20.60;99.90;;;;;;5027562;28;20048;-43
2021/07/22 08:10:21;;;;;;;11.93;9.95;;;20.70;99.90;;;;;;5016775;28;20075;-45
2021/07/22 08:12:47;;;;;;;13.13;9.88;;;20.80;99.90;;;;;;5028316;28;20025;-46
2021/07/22 08:15:14;;;;;;;13.82;9.85;;;21.00;99.90;;;;;;5016419;28;20657;-46
2021/07/22 08:17:40;;;;;;;11.27;9.77;;;21.20;99.40;;;;;;5025619;28;20029;-46
2021/07/22 08:20:08;;;;;;;14.77;10.50;;;21.30;99.20;;;;;;5016214;28;20508;-46
2021/07/22 08:22:35;;;;;;;12.32;10.95;;;21.50;99.00;;;;;;5027558;28;20049;-45
2021/07/22 08:25:00;;;;;;;12.68;11.13;;;21.50;98.50;;;;;;5019020;28;20112;-44
2021/07/22 08:27:30;;;;;;;12.23;10.45;;;21.50;98.50;;;;;;5030874;28;20517;-45
2021/07/22 08:29:56;;;;;;;10.75;9.60;;;21.40;98.40;;;;;;5023137;28;20033;-44
2021/07/22 08:32:23;;;;;;;11.00;9.85;;;21.40;98.70;;;;;;5029016;28;20362;-40
2021/07/22 08:34:49;;;;;;;12.80;10.55;;;21.30;98.80;;;;;;5020993;28;20043;-45
2021/07/22 08:37:15;;;;;;;12.93;10.18;;;21.30;98.90;;;;;;5011091;28;20034;-43
2021/07/22 08:39:42;;;;;;;12.55;11.23;;;21.30;98.80;;;;;;5015723;28;20116;-42
2021/07/22 08:42:09;;;;;;;11.90;9.98;;;21.40;98.50;;;;;;5017267;28;20409;-46
2021/07/22 08:44:39;;;;;;;11.52;9.40;;;21.50;98.50;;;;;;5001410;28;20076;-46
2021/07/22 08:47:06;;;;;;;11.18;9.23;;;21.70;98.40;;;;;;5022262;28;20040;-45
2021/07/22 08:49:37;;;;;;;9.98;8.98;;;21.90;98.10;;;;;;5012968;28;20024;-44
2021/07/22 08:52:10;;;;;;;9.52;8.57;;;22.00;97.50;;;;;;5023085;28;20028;-44
2021/07/22 08:54:37;;;;;;;10.07;8.63;;;22.10;97.30;;;;;;5013516;28;20021;-43
2021/07/22 08:57:06;;;;;;;9.68;8.38;;;22.20;97.10;;;;;;5022910;28;20030;-42
2021/07/22 08:59:32;;;;;;;13.30;8.57;;;22.20;97.10;;;;;;5012336;28;20026;-45
2021/07/22 09:02:00;;;;;;;10.13;8.50;;;22.30;96.90;;;;;;5023089;28;20020;-42
2021/07/22 09:04:27;;;;;;;9.60;8.60;;;22.30;96.60;;;;;;5011251;28;20532;-44
2021/07/22 09:06:52;;;;;;;9.32;8.43;;;22.30;96.50;;;;;;5023254;28;20037;-45
2021/07/22 09:09:18;;;;;;;8.32;7.00;;;22.30;96.50;;;;;;5012117;28;20026;-45
2021/07/22 09:12:00;;;;;;;8.43;7.28;;;22.40;96.50;;;;;;5023121;28;20029;-44
2021/07/22 09:14:31;;;;;;;9.50;8.00;;;22.60;96.30;;;;;;5024413;28;20060;-45
2021/07/22 09:16:57;;;;;;;7.85;6.95;;;22.70;96.00;;;;;;5019508;28;20080;-44
2021/07/22 09:19:40;;;;;;;9.57;7.22;;;22.70;95.90;;;;;;5002681;28;20030;-42
2021/07/22 09:22:08;;;;;;;7.75;6.95;;;22.80;95.90;;;;;;5009203;28;20493;-45
2021/07/22 09:24:48;;;;;;;7.72;6.60;;;22.90;95.70;;;;;;5013322;28;20119;-44
2021/07/22 09:27:35;;;;;;;8.45;6.50;;;22.90;95.70;;;;;;5023492;28;20029;-43
2021/07/22 09:30:02;;;;;;;6.72;6.03;;;22.90;95.60;;;;;;4992269;28;20030;-40
2021/07/22 09:32:32;;;;;;;6.18;5.63;;;22.90;95.60;;;;;;5018044;28;20162;-40
2021/07/22 09:35:08;;;;;;;6.72;6.05;;;22.80;95.10;;;;;;5010283;28;20058;-43
2021/07/22 09:37:35;;;;;;;6.95;6.00;;;22.60;95.40;;;;;;5021150;28;20032;-43
2021/07/22 09:40:01;;;;;;;14.68;7.13;;;22.60;95.60;;;;;;4990703;28;20525;-43
2021/07/22 09:42:39;;;;;;;7.93;6.70;;;22.60;95.00;;;;;;5014334;28;20025;-46
2021/07/22 09:45:26;;;;;;;9.95;6.57;;;22.40;94.40;;;;;;5011472;28;20438;-42
2021/07/22 09:47:56;;;;;;;7.35;6.20;;;22.20;94.90;;;;;;5021058;28;20522;-42
2021/07/22 09:50:24;;;;;;;6.50;5.85;;;22.10;95.00;;;;;;4990878;28;20029;-42
2021/07/22 09:53:07;;;;;;;6.93;6.22;;;22.10;95.20;;;;;;5014893;28;20063;-42
2021/07/22 09:55:34;;;;;;;7.15;6.40;;;22.20;95.10;;;;;;4990410;28;20037;-45
2021/07/22 09:58:03;;;;;;;7.38;6.10;;;22.30;95.00;;;;;;5014835;28;20022;-45
2021/07/22 10:00:30;;;;;;;7.10;6.38;;;22.40;94.90;;;;;;5012161;28;20028;-44
2021/07/22 10:02:59;;;;;;;7.43;6.72;;;22.40;94.80;;;;;;5017550;28;20017;-40
2021/07/22 10:05:37;;;;;;;7.93;7.13;;;22.60;94.60;;;;;;5013637;28;20502;-45
2021/07/22 10:08:04;;;;;;;7.22;6.50;;;22.60;94.50;;;;;;5016721;28;20492;-45
2021/07/22 10:10:30;;;;;;;7.57;6.32;;;22.70;94.50;;;;;;5014836;28;20073;-45
2021/07/22 10:12:59;;;;;;;17.25;7.22;;;22.90;94.40;;;;;;5014995;28;20029;-45
2021/07/22 10:15:27;;;;;;;8.10;7.10;;;23.00;94.30;;;;;;4988720;28;20030;-45
2021/07/22 10:17:57;;;;;;;9.48;7.10;;;22.90;94.10;;;;;;5001703;28;20022;-43
2021/07/22 10:20:28;;;;;;;7.20;6.50;;;23.00;93.90;;;;;;5018376;28;20022;-44
2021/07/22 10:22:54;;;;;;;6.97;6.23;;;23.00;94.00;;;;;;5012817;28;20053;-44
2021/07/22 10:25:20;;;;;;;6.93;6.15;;;23.00;93.70;;;;;;5020587;28;20312;-45
2021/07/22 10:27:46;;;;;;;7.55;6.35;;;23.00;93.60;;;;;;5012219;28;20381;-45
2021/07/22 10:30:19;;;;;;;8.40;5.88;;;23.00;93.40;;;;;;5021643;28;20025;-46
2021/07/22 10:32:56;;;;;;;7.70;6.00;;;23.00;93.30;;;;;;5011666;28;20025;-44
2021/07/22 10:35:27;;;;;;;7.03;6.15;;;23.00;93.30;;;;;;5021574;28;20026;-42
2021/07/22 10:38:20;;;;;;;8.90;6.37;;;23.10;93.20;;;;;;5011324;28;20431;-45
2021/07/22 10:40:57;;;;;;;6.72;6.03;;;23.20;93.10;;;;;;5008349;28;20025;-44
2021/07/22 10:43:41;;;;;;;7.05;5.63;;;23.30;93.20;;;;;;5027605;28;20018;-42
2021/07/22 10:46:15;;;;;;;7.13;6.40;;;23.30;93.20;;;;;;5011669;28;20029;-46
2021/07/22 10:48:45;;;;;;;7.72;6.88;;;23.30;93.00;;;;;;5028102;28;20112;-41
2021/07/22 10:51:14;;;;;;;7.55;6.38;;;23.20;92.90;;;;;;5018792;28;20025;-46
2021/07/22 10:53:47;;;;;;;7.18;6.45;;;23.10;92.90;;;;;;5027836;28;20041;-46
2021/07/22 10:56:22;;;;;;;6.93;5.85;;;23.10;93.00;;;;;;5019289;28;20018;-43
2021/07/22 10:58:49;;;;;;;6.25;5.75;;;23.10;93.20;;;;;;5026922;28;20555;-46
2021/07/22 11:01:44;;;;;;;9.65;5.70;;;23.10;93.30;;;;;;5018710;28;20014;-45
2021/07/22 11:04:30;;;;;;;6.65;5.93;;;23.30;93.30;;;;;;5028148;28;20195;-43
2021/07/22 11:06:59;;;;;;;6.30;5.80;;;23.40;92.90;;;;;;4999033;28;20053;-43
2021/07/22 11:09:45;;;;;;;6.65;5.88;;;23.60;92.70;;;;;;5027086;28;20024;-44
2021/07/22 11:12:31;;;;;;;5.75;5.18;;;23.60;92.50;;;;;;5021177;28;20025;-46
2021/07/22 11:14:58;;;;;;;5.57;4.85;;;23.60;92.40;;;;;;5016184;28;20037;-46
2021/07/22 11:17:49;;;;;;;5.95;5.45;;;23.60;92.50;;;;;;4997603;28;20026;-43
2021/07/22 11:20:21;;;;;;;5.90;5.30;;;23.60;91.60;;;;;;5000127;28;20385;-44
2021/07/22 11:22:48;;;;;;;7.32;5.60;;;23.50;91.70;;;;;;5000323;28;20033;-44
2021/07/22 11:25:15;;;;;;;7.65;5.72;;;23.50;92.00;;;;;;5006794;28;20088;-44
2021/07/22 11:27:44;;;;;;;6.45;5.85;;;23.50;92.00;;;;;;4998133;28;20038;-43
2021/07/22 11:30:14;;;;;;;6.28;5.68;;;23.60;91.60;;;;;;5004989;28;20150;-43
2021/07/22 11:32:39;;;;;;;7.68;6.22;;;23.60;91.80;;;;;;5002767;28;20501;-45
2021/07/22 11:35:05;;;;;;;6.50;5.63;;;23.60;91.70;;;;;;5003467;28;20026;-44
2021/07/22 11:37:31;;;;;;;6.65;5.95;;;23.60;91.60;;;;;;5006423;28;20091;-46
2021/07/22 11:39:57;;;;;;;6.43;5.82;;;23.50;91.70;;;;;;4999641;28;20015;-45
2021/07/22 11:42:23;;;;;;;6.53;5.85;;;23.40;91.90;;;;;;5000672;28;20445;-44
2021/07/22 11:45:05;;;;;;;8.20;6.18;;;23.30;92.10;;;;;;4998600;28;20332;-42
2021/07/22 11:47:33;;;;;;;6.43;5.80;;;23.10;92.20;;;;;;5005422;28;20026;-45
2021/07/22 11:49:59;;;;;;;8.55;6.60;;;22.90;92.40;;;;;;4999239;28;20050;-43
2021/07/22 11:52:26;;;;;;;6.75;5.72;;;22.90;92.50;;;;;;5006687;28;20475;-45
2021/07/22 11:55:08;;;;;;;5.80;5.28;;;22.80;92.60;;;;;;4999507;28;20050;-43
2021/07/22 11:57:41;;;;;;;5.78;5.28;;;22.80;92.80;;;;;;5005450;28;20049;-45
2021/07/22 12:00:18;;;;;;;5.38;4.88;;;22.90;92.80;;;;;;4994045;28;20119;-45
2021/07/22 12:02:45;;;;;;;5.30;4.80;;;23.10;92.70;;;;;;5003883;28;20160;-44
2021/07/22 12:05:11;;;;;;;5.57;4.95;;;23.20;92.60;;;;;;4997092;28;20478;-44
2021/07/22 12:07:37;;;;;;;6.75;5.18;;;23.30;92.50;;;;;;5003688;28;20037;-46
2021/07/22 12:10:03;;;;;;;5.50;4.90;;;23.50;92.20;;;;;;4999263;28;20454;-45
2021/07/22 12:12:29;;;;;;;5.53;5.03;;;23.60;92.00;;;;;;5000971;28;20076;-43
2021/07/22 12:15:08;;;;;;;5.78;5.18;;;23.80;91.40;;;;;;5005127;28;20022;-40
2021/07/22 12:17:36;;;;;;;7.38;5.20;;;23.90;91.10;;;;;;5006504;28;20022;-44
2021/07/22 12:20:02;;;;;;;6.40;5.32;;;24.00;91.10;;;;;;4999007;28;20492;-44
2021/07/22 12:22:31;;;;;;;8.90;6.47;;;24.00;91.00;;;;;;5002034;28;20018;-42
2021/07/22 12:25:06;;;;;;;5.75;5.15;;;24.10;91.00;;;;;;4999202;28;20470;-45
2021/07/22 12:27:43;;;;;;;6.15;5.60;;;24.00;90.80;;;;;;5002808;28;20037;-42
2021/07/22 12:30:27;;;;;;;5.90;5.30;;;23.90;90.70;;;;;;4996775;28;20018;-44
2021/07/22 12:32:55;;;;;;;5.93;5.43;;;23.70;90.80;;;;;;5000920;28;20022;-44
2021/07/22 12:35:34;;;;;;;9.73;5.30;;;23.60;90.90;;;;;;5000924;28;20030;-45
2021/07/22 12:38:06;;;;;;;6.38;5.65;;;23.60;91.00;;;;;;5002850;28;20108;-40
2021/07/22 12:40:36;;;;;;;4.95;4.55;;;23.60;91.00;;;;;;5002708;28;20106;-43